createdAt,value
2023-05-24T00:00:22.995Z,88.40
2023-05-24T00:02:27.073Z,88.90
2023-05-24T00:04:30.193Z,89.60
2023-05-24T00:06:34.891Z,89.60
2023-05-24T00:08:37.623Z,89.80
2023-05-24T00:10:40.440Z,90.10
2023-05-24T00:12:43.562Z,90.00
2023-05-24T00:14:46.432Z,90.00
2023-05-24T00:16:50.568Z,90.10
2023-05-24T00:18:54.847Z,90.70
2023-05-24T00:20:58.526Z,91.10
2023-05-24T00:23:01.551Z,91.50
2023-05-24T00:25:05.120Z,91.60
2023-05-24T00:27:08.447Z,91.70
2023-05-24T00:29:11.250Z,91.40
2023-05-24T00:31:14.074Z,91.60
2023-05-24T00:33:18.176Z,91.50
2023-05-24T00:35:20.984Z,91.80
2023-05-24T00:37:23.736Z,91.90
2023-05-24T00:39:26.493Z,91.80
2023-05-24T00:41:29.282Z,91.70
2023-05-24T00:43:32.093Z,91.70
2023-05-24T00:45:34.861Z,91.50
2023-05-24T00:47:37.936Z,91.10
2023-05-24T00:49:42.241Z,90.90
2023-05-24T00:51:45.046Z,90.90
2023-05-24T00:53:49.269Z,90.30
2023-05-24T00:55:52.044Z,90.20
2023-05-24T00:57:55.371Z,90.00
2023-05-24T00:59:58.245Z,89.60
2023-05-24T01:02:01.113Z,90.20
2023-05-24T01:04:04.286Z,90.20
2023-05-24T01:06:09.634Z,90.40
2023-05-24T01:08:23.839Z,90.60
2023-05-24T01:10:33.169Z,90.80
2023-05-24T01:12:47.111Z,91.10
2023-05-24T01:14:59.274Z,91.20
2023-05-24T01:17:20.561Z,91.50
2023-05-24T01:19:43.437Z,91.40
2023-05-24T01:22:09.233Z,91.60
2023-05-24T01:24:23.582Z,91.70
2023-05-24T01:26:38.586Z,91.70
2023-05-24T01:28:43.355Z,91.50
2023-05-24T01:30:46.886Z,91.40
2023-05-24T01:32:49.837Z,91.30
2023-05-24T01:34:52.590Z,91.40
2023-05-24T01:36:55.386Z,91.30
2023-05-24T01:38:58.157Z,91.20
2023-05-24T01:41:06.851Z,91.20
2023-05-24T01:43:16.761Z,91.10
2023-05-24T01:45:30.606Z,91.20
2023-05-24T01:47:46.215Z,91.00
2023-05-24T01:49:51.967Z,91.10
2023-05-24T01:52:00.283Z,91.40
2023-05-24T01:54:06.031Z,91.70
2023-05-24T01:56:09.680Z,91.70
2023-05-24T01:58:14.123Z,91.90
2023-05-24T02:00:19.240Z,91.60
2023-05-24T02:02:23.683Z,91.70
2023-05-24T02:04:26.799Z,91.70
2023-05-24T02:06:29.594Z,92.10
2023-05-24T02:08:32.427Z,92.20
2023-05-24T02:10:35.320Z,92.20
2023-05-24T02:12:38.171Z,92.60
2023-05-24T02:14:42.802Z,92.80
2023-05-24T02:16:47.007Z,92.70
2023-05-24T02:18:51.651Z,93.00
2023-05-24T02:20:54.399Z,93.00
2023-05-24T02:22:57.549Z,93.10
2023-05-24T02:25:00.305Z,93.00
2023-05-24T02:27:03.146Z,92.90
2023-05-24T02:29:06.171Z,92.60
2023-05-24T02:31:08.965Z,92.70
2023-05-24T02:33:12.237Z,92.40
2023-05-24T02:35:16.451Z,92.50
2023-05-24T02:37:20.642Z,92.60
2023-05-24T02:39:23.399Z,92.70
2023-05-24T02:41:26.543Z,92.80
2023-05-24T02:43:29.347Z,92.70
2023-05-24T02:45:32.322Z,92.70
2023-05-24T02:47:35.105Z,92.80
2023-05-24T02:49:37.881Z,92.80
2023-05-24T02:51:42.322Z,92.70
2023-05-24T02:53:45.361Z,92.60
2023-05-24T02:55:48.113Z,92.60
2023-05-24T02:57:51.372Z,92.80
2023-05-24T02:59:54.245Z,92.90
2023-05-24T03:01:57.005Z,93.00
2023-05-24T03:03:59.854Z,93.10
2023-05-24T03:06:02.663Z,93.20
2023-05-24T03:08:07.912Z,93.30
2023-05-24T03:10:11.550Z,93.30
2023-05-24T03:12:15.010Z,93.50
2023-05-24T03:14:17.827Z,93.70
2023-05-24T03:16:21.151Z,93.80
2023-05-24T03:18:24.033Z,93.70
2023-05-24T03:20:26.829Z,93.30
2023-05-24T03:22:29.643Z,92.90
2023-05-24T03:24:34.324Z,92.80
2023-05-24T03:26:37.513Z,92.70
2023-05-24T03:28:40.676Z,92.50
2023-05-24T03:30:43.813Z,92.30
2023-05-24T03:32:46.933Z,92.20
2023-05-24T03:34:49.926Z,92.10
2023-05-24T03:36:52.844Z,92.00
2023-05-24T03:38:58.097Z,92.00
2023-05-24T03:41:02.312Z,92.00
2023-05-24T03:43:05.110Z,91.90
2023-05-24T03:45:09.158Z,91.70
2023-05-24T03:47:12.049Z,91.40
2023-05-24T03:49:14.832Z,91.30
2023-05-24T03:51:17.750Z,91.50
2023-05-24T03:53:22.971Z,91.50
2023-05-24T03:55:26.326Z,91.40
2023-05-24T03:57:30.386Z,91.40
2023-05-24T03:59:33.152Z,91.50
2023-05-24T04:01:36.648Z,91.60
2023-05-24T04:03:40.759Z,91.70
2023-05-24T04:05:43.576Z,91.90
2023-05-24T04:07:46.464Z,92.10
2023-05-24T04:09:49.331Z,92.30
2023-05-24T04:11:52.257Z,92.20
2023-05-24T04:13:56.875Z,92.40
2023-05-24T04:15:59.619Z,92.60
2023-05-24T04:18:03.464Z,92.70
2023-05-24T04:20:07.489Z,92.80
2023-05-24T04:22:10.557Z,92.70
2023-05-24T04:24:13.352Z,92.80
2023-05-24T04:26:17.634Z,92.60
2023-05-24T04:28:22.226Z,92.30
2023-05-24T04:30:26.332Z,92.20
2023-05-24T04:32:30.402Z,92.50
2023-05-24T04:34:33.892Z,92.40
2023-05-24T04:36:36.995Z,92.10
2023-05-24T04:38:41.085Z,92.20
2023-05-24T04:40:44.160Z,92.30
2023-05-24T04:42:47.201Z,92.30
2023-05-24T04:44:49.989Z,92.50
2023-05-24T04:46:54.538Z,92.40
2023-05-24T04:48:57.491Z,91.70
2023-05-24T04:51:00.543Z,91.60
2023-05-24T04:53:03.971Z,91.50
2023-05-24T04:55:07.684Z,91.60
2023-05-24T04:57:10.507Z,91.40
2023-05-24T04:59:13.234Z,91.20
2023-05-24T05:01:16.100Z,91.00
2023-05-24T05:03:20.730Z,90.90
2023-05-24T05:05:23.652Z,90.90
2023-05-24T05:07:26.465Z,90.50
2023-05-24T05:09:29.278Z,90.80
2023-05-24T05:11:32.047Z,90.80
2023-05-24T05:13:34.867Z,91.20
2023-05-24T05:15:37.625Z,91.00
2023-05-24T05:17:40.636Z,90.80
2023-05-24T05:19:44.753Z,90.80
2023-05-24T05:21:47.559Z,91.10
2023-05-24T05:23:50.468Z,91.10
2023-05-24T05:25:53.290Z,91.30
2023-05-24T05:27:56.032Z,91.80
2023-05-24T05:29:58.826Z,92.10
2023-05-24T05:32:01.589Z,92.10
2023-05-24T05:34:04.482Z,92.30
2023-05-24T05:36:08.784Z,92.60
2023-05-24T05:38:11.542Z,92.30
2023-05-24T05:40:14.266Z,91.80
2023-05-24T05:42:17.080Z,92.20
2023-05-24T05:44:19.891Z,92.10
2023-05-24T05:46:22.720Z,91.90
2023-05-24T05:48:26.682Z,91.70
2023-05-24T05:50:29.421Z,92.00
2023-05-24T05:52:33.555Z,91.70
2023-05-24T05:54:36.304Z,91.80
2023-05-24T05:56:44.841Z,91.60
2023-05-24T05:58:47.660Z,91.90
2023-05-24T06:00:50.745Z,92.10
2023-05-24T06:02:53.634Z,91.60
2023-05-24T06:04:56.503Z,91.70
2023-05-24T06:06:59.517Z,91.60
2023-05-24T06:09:03.668Z,91.30
2023-05-24T06:11:06.470Z,90.90
2023-05-24T06:13:09.184Z,91.40
2023-05-24T06:15:12.445Z,91.30
2023-05-24T06:17:15.227Z,91.20
2023-05-24T06:19:18.300Z,90.90
2023-05-24T06:21:21.716Z,90.70
2023-05-24T06:23:24.565Z,90.00
2023-05-24T06:25:30.865Z,90.10
2023-05-24T06:27:33.611Z,90.50
2023-05-24T06:29:36.421Z,90.50
2023-05-24T06:31:39.435Z,90.20
2023-05-24T06:33:46.797Z,90.10
2023-05-24T06:35:52.245Z,90.40
2023-05-24T06:37:55.022Z,90.00
2023-05-24T06:39:57.878Z,89.70
2023-05-24T06:42:02.050Z,90.00
2023-05-24T06:44:04.873Z,90.30
2023-05-24T06:46:07.897Z,90.20
2023-05-24T06:48:10.804Z,90.30
2023-05-24T06:50:13.750Z,90.10
2023-05-24T06:52:16.641Z,90.30
2023-05-24T06:54:19.591Z,90.10
2023-05-24T06:56:23.152Z,90.50
2023-05-24T06:58:27.251Z,90.50
2023-05-24T07:00:29.995Z,90.20
2023-05-24T07:02:32.802Z,90.10
2023-05-24T07:04:35.582Z,90.10
2023-05-24T07:06:39.369Z,90.00
2023-05-24T07:08:42.351Z,89.90
2023-05-24T07:10:45.272Z,88.00
2023-05-24T07:12:48.171Z,88.70
2023-05-24T07:14:53.276Z,89.20
2023-05-24T07:16:57.600Z,89.30
2023-05-24T07:19:03.147Z,89.40
2023-05-24T07:21:07.493Z,88.90
2023-05-24T07:23:10.619Z,89.80
2023-05-24T07:25:13.475Z,88.40
2023-05-24T07:27:16.365Z,88.50
2023-05-24T07:29:19.144Z,89.70
2023-05-24T07:31:23.254Z,89.40
2023-05-24T07:33:26.105Z,89.40
2023-05-24T07:35:30.049Z,89.50
2023-05-24T07:37:32.801Z,89.70
2023-05-24T07:39:35.586Z,87.90
2023-05-24T07:41:38.407Z,87.80
2023-05-24T07:43:41.143Z,88.70
2023-05-24T07:45:44.431Z,87.90
2023-05-24T07:47:48.665Z,86.70
2023-05-24T07:49:51.428Z,83.90
2023-05-24T07:51:56.871Z,84.20
2023-05-24T07:53:59.609Z,85.30
2023-05-24T07:56:02.332Z,85.90
2023-05-24T07:58:05.116Z,84.30
2023-05-24T08:00:10.619Z,83.00
2023-05-24T08:02:13.794Z,81.50
2023-05-24T08:04:17.857Z,82.60
2023-05-24T08:06:20.837Z,83.70
2023-05-24T08:08:24.353Z,83.10
2023-05-24T08:10:27.542Z,79.70
2023-05-24T08:12:31.296Z,81.40
2023-05-24T08:14:34.476Z,81.40
2023-05-24T08:16:37.227Z,82.00
2023-05-24T08:18:40.095Z,82.80
2023-05-24T08:20:44.282Z,81.90
2023-05-24T08:22:48.344Z,81.50
2023-05-24T08:24:51.578Z,82.00
2023-05-24T08:26:54.397Z,80.80
2023-05-24T08:28:57.217Z,81.80
2023-05-24T08:30:59.967Z,81.00
2023-05-24T08:33:02.928Z,81.60
2023-05-24T08:35:18.639Z,82.50
2023-05-24T08:37:25.042Z,81.60
2023-05-24T08:39:27.804Z,82.00
2023-05-24T08:41:32.798Z,82.60
2023-05-24T08:43:36.326Z,83.60
2023-05-24T08:45:41.085Z,83.80
2023-05-24T08:47:44.415Z,83.50
2023-05-24T08:49:48.488Z,81.90
2023-05-24T08:51:52.922Z,81.00
2023-05-24T08:53:58.644Z,79.20
2023-05-24T08:56:01.931Z,80.60
2023-05-24T08:58:05.831Z,77.40
2023-05-24T09:00:11.610Z,80.00
2023-05-24T09:02:16.425Z,77.10
2023-05-24T09:04:20.333Z,72.10
2023-05-24T09:06:25.355Z,76.00
2023-05-24T09:08:28.542Z,69.20
2023-05-24T09:10:44.934Z,72.60
2023-05-24T09:12:52.595Z,67.50
2023-05-24T09:14:55.940Z,69.90
2023-05-24T09:16:59.616Z,70.10
2023-05-24T09:19:03.432Z,64.90
2023-05-24T09:21:08.034Z,65.30
2023-05-24T09:23:12.025Z,66.10
2023-05-24T09:25:16.053Z,68.50
2023-05-24T09:27:21.681Z,69.60
2023-05-24T09:29:24.699Z,69.70
2023-05-24T09:31:34.499Z,70.40
2023-05-24T09:33:37.598Z,72.70
2023-05-24T09:35:43.505Z,72.10
2023-05-24T09:37:48.333Z,72.30
2023-05-24T09:39:51.815Z,71.40
2023-05-24T09:41:58.791Z,71.00
2023-05-24T09:44:03.313Z,70.60
2023-05-24T09:46:06.398Z,71.30
2023-05-24T09:48:12.687Z,67.90
2023-05-24T09:50:17.423Z,67.10
2023-05-24T09:52:20.645Z,68.30
2023-05-24T09:54:25.722Z,70.10
2023-05-24T09:56:29.047Z,71.60
2023-05-24T09:58:33.135Z,69.80
2023-05-24T10:00:42.510Z,66.70
2023-05-24T10:02:53.394Z,63.10
2023-05-24T10:05:01.570Z,60.80
2023-05-24T10:07:05.773Z,60.00
2023-05-24T10:09:09.864Z,61.20
2023-05-24T10:11:12.775Z,63.20
2023-05-24T10:13:17.760Z,64.20
2023-05-24T10:15:20.711Z,65.70
2023-05-24T10:17:28.052Z,64.90
2023-05-24T10:19:30.944Z,64.80
2023-05-24T10:21:37.675Z,66.90
2023-05-24T10:23:44.862Z,68.00
2023-05-24T10:25:53.787Z,66.10
2023-05-24T10:27:59.449Z,65.30
2023-05-24T10:30:11.388Z,67.20
2023-05-24T10:32:18.176Z,65.80
2023-05-24T10:34:22.900Z,65.80
2023-05-24T10:36:26.123Z,65.00
2023-05-24T10:38:30.856Z,67.50
2023-05-24T10:40:33.845Z,67.50
2023-05-24T10:42:36.813Z,66.00
2023-05-24T10:44:39.660Z,64.50
2023-05-24T10:47:10.804Z,63.10
2023-05-24T10:49:15.140Z,57.80
2023-05-24T10:51:38.623Z,56.50
2023-05-24T10:53:42.108Z,56.50
2023-05-24T10:55:56.100Z,56.40
2023-05-24T10:57:58.856Z,57.00
2023-05-24T11:02:36.625Z,58.20
2023-05-24T11:04:43.082Z,59.80
2023-05-24T11:06:55.645Z,60.70
2023-05-24T11:09:01.708Z,59.10
2023-05-24T11:11:23.284Z,59.90
2023-05-24T11:13:31.094Z,59.80
2023-05-24T11:15:33.950Z,60.50
2023-05-24T11:18:16.981Z,59.00
2023-05-24T11:20:21.074Z,58.80
2023-05-24T11:22:26.725Z,59.30
2023-05-24T11:24:30.196Z,58.30
2023-05-24T11:26:33.389Z,58.60
2023-05-24T11:28:38.337Z,60.10
2023-05-24T11:30:41.889Z,59.30
2023-05-24T11:32:49.662Z,57.80
2023-05-24T11:34:52.494Z,59.00
2023-05-24T11:36:55.559Z,58.40
2023-05-24T11:39:01.329Z,58.50
2023-05-24T11:41:04.136Z,59.90
2023-05-24T11:43:07.614Z,59.90
2023-05-24T11:45:11.247Z,59.30
2023-05-24T11:47:14.407Z,57.70
2023-05-24T11:49:18.307Z,56.40
2023-05-24T11:51:27.254Z,57.60
2023-05-24T11:53:30.031Z,59.20
2023-05-24T11:55:34.142Z,58.40
2023-05-24T11:57:40.037Z,58.70
2023-05-24T11:59:43.147Z,56.60
2023-05-24T12:01:45.963Z,56.70
2023-05-24T12:03:49.259Z,56.80
2023-05-24T12:05:52.818Z,56.80
2023-05-24T12:08:04.769Z,56.30
2023-05-24T12:10:09.628Z,56.90
2023-05-24T12:12:13.855Z,57.70
2023-05-24T12:14:18.312Z,55.90
2023-05-24T12:16:21.226Z,55.10
2023-05-24T12:18:26.016Z,55.90
2023-05-24T12:20:29.198Z,56.20
2023-05-24T12:22:32.062Z,56.10
2023-05-24T12:24:35.239Z,57.70
2023-05-24T12:26:38.957Z,57.40
2023-05-24T12:28:44.056Z,59.20
2023-05-24T12:30:47.325Z,59.10
2023-05-24T12:32:50.543Z,56.80
2023-05-24T12:34:54.785Z,57.00
2023-05-24T12:36:57.932Z,56.30
2023-05-24T12:39:00.697Z,56.00
2023-05-24T12:41:13.105Z,52.90
2023-05-24T12:43:17.374Z,54.70
2023-05-24T12:45:25.737Z,53.30
2023-05-24T12:47:28.623Z,54.40
2023-05-24T12:49:32.543Z,53.80
2023-05-24T12:51:36.591Z,55.00
2023-05-24T12:53:39.324Z,56.10
2023-05-24T12:55:42.328Z,57.10
2023-05-24T12:57:52.864Z,57.30
2023-05-24T12:59:55.617Z,57.50
2023-05-24T13:02:00.375Z,58.20
2023-05-24T13:04:03.152Z,58.20
2023-05-24T13:06:06.763Z,58.50
2023-05-24T13:08:11.111Z,58.40
2023-05-24T13:10:14.515Z,56.70
2023-05-24T13:12:17.601Z,57.00
2023-05-24T13:14:20.817Z,56.40
2023-05-24T13:16:24.256Z,57.20
2023-05-24T13:18:28.423Z,56.90
2023-05-24T13:20:31.246Z,56.20
2023-05-24T13:22:35.585Z,56.10
2023-05-24T13:24:38.340Z,56.90
2023-05-24T13:26:41.535Z,56.00
2023-05-24T13:29:07.721Z,57.30
2023-05-24T13:31:07.789Z,56.60
2023-05-24T13:33:10.702Z,56.70
2023-05-24T13:35:14.866Z,57.30
2023-05-24T13:37:17.738Z,56.50
2023-05-24T13:39:21.561Z,53.70
2023-05-24T13:41:25.076Z,54.10
2023-05-24T13:43:27.872Z,55.90
2023-05-24T13:45:33.064Z,56.20
2023-05-24T13:47:40.117Z,57.10
2023-05-24T13:49:43.634Z,56.80
2023-05-24T13:51:47.999Z,57.70
2023-05-24T13:53:51.015Z,58.20
2023-05-24T13:55:53.886Z,58.40
2023-05-24T13:57:57.294Z,58.00
2023-05-24T14:00:00.751Z,57.50
2023-05-24T14:02:03.611Z,58.90
2023-05-24T14:04:07.896Z,59.70
2023-05-24T14:06:10.886Z,59.70
2023-05-24T14:08:15.030Z,58.00
2023-05-24T14:10:20.820Z,58.40
2023-05-24T14:12:24.179Z,59.80
2023-05-24T14:16:32.688Z,56.90
2023-05-24T14:18:35.942Z,56.20
2023-05-24T14:20:40.400Z,54.70
2023-05-24T14:22:43.602Z,55.50
2023-05-24T14:24:48.039Z,53.50
2023-05-24T14:26:50.779Z,52.40
2023-05-24T14:28:56.232Z,53.50
2023-05-24T14:30:59.982Z,53.90
2023-05-24T14:33:02.769Z,54.80
2023-05-24T14:35:06.708Z,56.80
2023-05-24T14:37:09.509Z,57.10
2023-05-24T14:39:12.551Z,58.30
2023-05-24T14:41:16.649Z,59.10
2023-05-24T14:43:19.382Z,59.60
2023-05-24T14:45:22.261Z,59.10
2023-05-24T14:47:25.061Z,60.00
2023-05-24T14:49:27.837Z,60.50
2023-05-24T14:51:30.687Z,60.60
2023-05-24T14:53:33.473Z,59.40
2023-05-24T14:55:36.481Z,59.70
2023-05-24T14:57:41.871Z,60.00
2023-05-24T14:59:44.727Z,59.60
2023-05-24T15:01:47.584Z,58.90
2023-05-24T15:03:50.481Z,58.20
2023-05-24T15:05:53.318Z,59.20
2023-05-24T15:07:56.060Z,61.20
2023-05-24T15:09:58.839Z,59.10
2023-05-24T15:12:02.014Z,59.90
2023-05-24T15:14:06.201Z,59.90
2023-05-24T15:16:09.198Z,60.30
2023-05-24T15:18:12.087Z,60.00
2023-05-24T15:20:15.040Z,58.10
2023-05-24T15:22:17.829Z,56.40
2023-05-24T15:24:20.600Z,57.50
2023-05-24T15:26:23.493Z,49.90
2023-05-24T15:28:26.823Z,51.20
2023-05-24T15:30:31.601Z,50.70
2023-05-24T15:32:34.350Z,46.70
2023-05-24T15:34:37.161Z,46.80
2023-05-24T15:36:41.119Z,42.20
2023-05-24T15:38:43.932Z,38.40
2023-05-24T15:40:47.072Z,38.20
2023-05-24T15:42:50.106Z,37.80
2023-05-24T15:44:52.989Z,39.60
2023-05-24T15:46:57.296Z,40.50
2023-05-24T15:49:00.140Z,41.80
2023-05-24T15:53:08.601Z,45.90
2023-05-24T15:55:11.454Z,47.60
2023-05-24T15:57:14.284Z,48.30
2023-05-24T15:59:18.130Z,49.10
2023-05-24T16:01:22.487Z,49.60
2023-05-24T16:03:26.768Z,51.30
2023-05-24T16:05:29.666Z,52.40
2023-05-24T16:07:32.838Z,52.40
2023-05-24T16:09:35.663Z,52.80
2023-05-24T16:11:38.403Z,49.00
2023-05-24T16:13:41.323Z,43.80
2023-05-24T16:15:50.898Z,41.70
2023-05-24T16:17:53.711Z,38.60
2023-05-24T16:19:59.145Z,41.40
2023-05-24T16:22:02.025Z,44.40
2023-05-24T16:24:05.330Z,47.30
2023-05-24T16:26:08.129Z,44.70
2023-05-24T16:28:10.910Z,42.60
2023-05-24T16:30:14.177Z,41.20
2023-05-24T16:32:17.031Z,39.40
2023-05-24T16:34:19.906Z,40.70
2023-05-24T16:36:24.713Z,38.40
2023-05-24T16:38:27.499Z,37.70
2023-05-24T16:40:30.654Z,37.80
2023-05-24T16:42:33.436Z,37.40
2023-05-24T16:44:36.210Z,34.70
2023-05-24T16:46:39.054Z,34.90
2023-05-24T16:48:41.946Z,34.40
2023-05-24T16:50:44.889Z,37.10
2023-05-24T16:52:49.084Z,41.10
2023-05-24T16:54:52.042Z,43.20
2023-05-24T16:56:54.985Z,42.80
2023-05-24T16:58:57.846Z,44.60
2023-05-24T17:01:00.769Z,45.20
2023-05-24T17:03:04.123Z,46.90
2023-05-24T17:05:07.864Z,47.00
2023-05-24T17:07:10.680Z,48.20
2023-05-24T17:09:14.770Z,48.60
2023-05-24T17:11:19.748Z,48.80
2023-05-24T17:13:22.676Z,49.20
2023-05-24T17:15:25.502Z,50.40
2023-05-24T17:17:28.309Z,51.00
2023-05-24T17:19:31.761Z,51.40
2023-05-24T17:21:34.561Z,51.50
2023-05-24T17:23:37.821Z,52.00
2023-05-24T17:25:41.923Z,52.90
2023-05-24T17:27:44.807Z,53.60
2023-05-24T17:29:47.815Z,54.50
2023-05-24T17:31:50.978Z,54.20
2023-05-24T17:33:53.833Z,52.50
2023-05-24T17:35:57.594Z,51.90
2023-05-24T17:38:00.576Z,52.40
2023-05-24T17:40:03.488Z,53.50
2023-05-24T17:42:07.883Z,54.00
2023-05-24T17:44:10.642Z,54.80
2023-05-24T17:46:14.230Z,56.00
2023-05-24T17:48:17.472Z,56.30
2023-05-24T17:50:20.293Z,55.40
2023-05-24T17:52:23.019Z,55.60
2023-05-24T17:54:26.018Z,55.30
2023-05-24T17:56:30.388Z,55.90
2023-05-24T17:58:37.333Z,56.50
2023-05-24T18:00:40.823Z,57.00
2023-05-24T18:02:43.725Z,56.80
2023-05-24T18:04:46.539Z,56.90
2023-05-24T18:06:49.380Z,57.20
2023-05-24T18:08:52.119Z,57.50
2023-05-24T18:10:54.963Z,57.60
2023-05-24T18:12:57.709Z,58.30
2023-05-24T18:15:01.903Z,58.50
2023-05-24T18:17:05.034Z,58.60
2023-05-24T18:19:07.845Z,58.80
2023-05-24T18:21:10.808Z,59.10
2023-05-24T18:23:13.561Z,59.30
2023-05-24T18:25:16.672Z,59.70
2023-05-24T18:27:19.562Z,59.50
2023-05-24T18:29:22.351Z,59.30
2023-05-24T18:31:26.459Z,60.20
2023-05-24T18:33:29.204Z,60.20
2023-05-24T18:35:32.145Z,60.00
2023-05-24T18:37:35.035Z,61.00
2023-05-24T18:39:37.807Z,61.20
2023-05-24T18:41:40.640Z,61.20
2023-05-24T18:43:43.716Z,61.60
2023-05-24T18:45:46.618Z,61.50
2023-05-24T18:47:50.777Z,61.30
2023-05-24T18:49:53.701Z,61.10
2023-05-24T18:51:56.527Z,60.90
2023-05-24T18:53:59.307Z,61.00
2023-05-24T18:56:02.096Z,62.40
2023-05-24T18:58:06.602Z,62.40
2023-05-24T19:00:10.506Z,63.80
2023-05-24T19:02:13.446Z,64.40
2023-05-24T19:04:17.578Z,63.60
2023-05-24T19:06:20.432Z,63.50
2023-05-24T19:08:23.248Z,63.80
2023-05-24T19:10:26.071Z,63.10
2023-05-24T19:12:28.918Z,63.50
2023-05-24T19:14:32.402Z,64.30
2023-05-24T19:16:35.257Z,64.40
2023-05-24T19:18:38.199Z,64.30
2023-05-24T19:20:43.127Z,64.40
2023-05-24T19:22:46.036Z,64.80
2023-05-24T19:24:48.851Z,64.80
2023-05-24T19:26:51.792Z,65.70
2023-05-24T19:28:54.703Z,66.30
2023-05-24T19:31:01.089Z,66.90
2023-05-24T19:33:04.168Z,67.10
2023-05-24T19:35:08.393Z,68.60
2023-05-24T19:37:12.560Z,68.80
2023-05-24T19:39:15.392Z,69.10
2023-05-24T19:41:18.265Z,70.30
2023-05-24T19:43:21.047Z,69.90
2023-05-24T19:45:23.926Z,69.60
2023-05-24T19:47:26.723Z,70.00
2023-05-24T19:49:29.556Z,69.70
2023-05-24T19:51:32.361Z,69.60
2023-05-24T19:53:36.431Z,69.90
2023-05-24T19:55:39.299Z,70.00
2023-05-24T19:57:42.090Z,69.90
2023-05-24T19:59:44.875Z,70.30
2023-05-24T20:01:47.784Z,70.50
2023-05-24T20:03:50.635Z,70.90
2023-05-24T20:05:53.459Z,71.00
2023-05-24T20:07:56.201Z,71.70
2023-05-24T20:10:00.833Z,71.50
2023-05-24T20:12:04.523Z,73.00
2023-05-24T20:14:07.298Z,73.00
2023-05-24T20:16:10.234Z,73.00
2023-05-24T20:18:13.061Z,73.10
2023-05-24T20:20:16.091Z,73.60
2023-05-24T20:22:19.017Z,73.90
2023-05-24T20:24:21.808Z,74.90
2023-05-24T20:26:25.970Z,75.30
2023-05-24T20:28:31.222Z,75.60
2023-05-24T20:30:35.476Z,75.20
2023-05-24T20:32:38.325Z,75.40
2023-05-24T20:34:41.165Z,75.50
2023-05-24T20:36:44.131Z,75.30
2023-05-24T20:38:47.612Z,74.90
2023-05-24T20:40:50.522Z,74.50
2023-05-24T20:42:55.363Z,74.00
2023-05-24T20:44:58.134Z,73.70
2023-05-24T20:47:01.060Z,73.50
2023-05-24T20:49:03.877Z,73.10
2023-05-24T20:51:08.097Z,73.40
2023-05-24T20:53:10.959Z,73.10
2023-05-24T20:55:16.205Z,73.10
2023-05-24T20:57:19.044Z,72.90
2023-05-24T20:59:23.158Z,73.00
2023-05-24T21:01:26.682Z,73.00
2023-05-24T21:03:30.032Z,73.10
2023-05-24T21:05:36.253Z,73.30
2023-05-24T21:07:39.019Z,73.30
2023-05-24T21:09:41.824Z,73.60
2023-05-24T21:11:44.756Z,73.60
2023-05-24T21:13:47.580Z,74.20
2023-05-24T21:15:51.691Z,74.40
2023-05-24T21:17:54.509Z,74.90
2023-05-24T21:19:57.328Z,75.40
2023-05-24T21:22:00.189Z,75.50
2023-05-24T21:24:03.492Z,76.50
2023-05-24T21:26:06.448Z,76.80
2023-05-24T21:28:10.286Z,76.70
2023-05-24T21:30:14.395Z,76.50
2023-05-24T21:32:18.551Z,76.60
2023-05-24T21:34:21.295Z,77.60
2023-05-24T21:36:24.128Z,77.80
2023-05-24T21:38:26.885Z,78.40
2023-05-24T21:40:29.605Z,78.90
2023-05-24T21:42:32.395Z,78.80
2023-05-24T21:44:35.252Z,79.20
2023-05-24T21:46:38.089Z,79.20
2023-05-24T21:48:42.241Z,78.90
2023-05-24T21:50:45.341Z,78.60
2023-05-24T21:52:48.073Z,78.30
2023-05-24T21:54:50.852Z,77.90
2023-05-24T21:56:53.614Z,78.00
2023-05-24T21:58:56.438Z,78.40
2023-05-24T22:00:59.204Z,78.50
2023-05-24T22:03:02.045Z,78.40
2023-05-24T22:05:06.720Z,78.40
2023-05-24T22:07:09.525Z,78.40
2023-05-24T22:09:13.567Z,79.40
2023-05-24T22:11:16.406Z,80.00
2023-05-24T22:13:19.298Z,80.60
2023-05-24T22:15:22.070Z,81.20
2023-05-24T22:17:25.683Z,81.30
2023-05-24T22:19:40.094Z,81.60
2023-05-24T22:21:45.812Z,81.80
2023-05-24T22:23:48.720Z,82.30
2023-05-24T22:25:51.496Z,82.20
2023-05-24T22:27:55.672Z,81.90
2023-05-24T22:29:58.496Z,81.40
2023-05-24T22:32:01.285Z,81.30
2023-05-24T22:34:04.233Z,81.20
2023-05-24T22:36:07.131Z,80.90
2023-05-24T22:38:11.415Z,81.10
2023-05-24T22:40:14.692Z,80.90
2023-05-24T22:42:17.539Z,80.90
2023-05-24T22:44:20.846Z,81.10
2023-05-24T22:46:24.117Z,81.40
2023-05-24T22:48:27.430Z,81.50
2023-05-24T22:50:30.183Z,82.30
2023-05-24T22:52:33.891Z,82.80
2023-05-24T22:54:38.017Z,83.00
2023-05-24T22:56:41.159Z,83.20
2023-05-24T22:58:43.872Z,83.00
2023-05-24T23:00:46.665Z,82.90
2023-05-24T23:02:49.533Z,82.50
2023-05-24T23:04:53.775Z,82.40
2023-05-24T23:06:56.698Z,82.20
2023-05-24T23:08:59.523Z,82.30
2023-05-24T23:11:10.185Z,82.30
2023-05-24T23:13:14.304Z,82.10
2023-05-24T23:15:18.289Z,81.90
2023-05-24T23:17:23.688Z,81.60
2023-05-24T23:19:26.525Z,81.40
2023-05-24T23:21:29.398Z,81.20
2023-05-24T23:23:32.227Z,80.90
2023-05-24T23:25:35.144Z,81.10
2023-05-24T23:27:40.458Z,81.30
2023-05-24T23:29:43.220Z,81.30
2023-05-24T23:31:46.147Z,81.20
2023-05-24T23:33:49.007Z,81.30
2023-05-24T23:35:51.757Z,81.20
2023-05-24T23:37:54.577Z,81.10
2023-05-24T23:40:02.187Z,81.10
2023-05-24T23:42:06.697Z,81.00
2023-05-24T23:44:10.896Z,81.00
2023-05-24T23:46:16.966Z,80.80
2023-05-24T23:48:21.163Z,80.60
2023-05-24T23:50:23.976Z,81.10
2023-05-24T23:52:27.083Z,82.20
2023-05-24T23:54:29.856Z,82.70
2023-05-24T23:56:34.598Z,82.90
2023-05-24T23:58:37.585Z,82.60
